Time;durP1;ratioP1;P1;durP2;ratioP2;P2;SDS_P1;SDS_P2;PMS_P1;PMS_P2;Temp;Humidity;BMP_temperature;BMP_pressure;BME280_temperature;BME280_humidity;BME280_pressure;Samples;Min_cycle;Max_cycle;Signal;HPM_P1;HPM_P2
2023/01/09 00:02:04;;;;;;;;;0.00;0.00;;;;;;;;5078063;28;11435;-82
2023/01/09 00:04:33;;;;;;;;;1.00;0.00;;;;;;;;5061786;28;11437;-83
2023/01/09 00:07:01;;;;;;;;;2.00;0.00;;;;;;;;5083137;28;11388;-83
2023/01/09 00:09:28;;;;;;;;;0.00;0.00;;;;;;;;5065460;28;11575;-82
2023/01/09 00:11:57;;;;;;;;;0.25;0.25;;;;;;;;5079562;28;11489;-83
2023/01/09 00:14:24;;;;;;;;;0.00;0.00;;;;;;;;5091995;28;11407;-83
2023/01/09 00:16:54;;;;;;;;;0.00;0.00;;;;;;;;5080414;28;11431;-82
2023/01/09 00:19:22;;;;;;;;;0.00;0.00;;;;;;;;5081170;28;11428;-82
2023/01/09 00:21:50;;;;;;;;;0.00;0.00;;;;;;;;5083132;28;11396;-82
2023/01/09 00:24:18;;;;;;;;;0.00;0.00;;;;;;;;5077665;28;11477;-82
2023/01/09 00:26:45;;;;;;;;;1.00;1.00;;;;;;;;5080215;28;11425;-82
2023/01/09 00:29:12;;;;;;;;;0.00;0.00;;;;;;;;5083092;28;11449;-82
2023/01/09 00:31:39;;;;;;;;;0.00;0.00;;;;;;;;5081124;28;11453;-82
2023/01/09 00:34:09;;;;;;;;;1.50;0.00;;;;;;;;5084484;28;11410;-83
2023/01/09 00:36:36;;;;;;;;;0.00;0.00;;;;;;;;5065244;28;11462;-83
2023/01/09 00:39:06;;;;;;;;;0.00;0.00;;;;;;;;5080154;28;11468;-83
2023/01/09 00:41:38;;;;;;;;;0.50;0.50;;;;;;;;5083582;28;11397;-83
2023/01/09 00:44:09;;;;;;;;;0.00;0.00;;;;;;;;5085901;28;11432;-84
2023/01/09 00:46:40;;;;;;;;;0.00;0.00;;;;;;;;5062284;28;11405;-84
2023/01/09 00:49:09;;;;;;;;;2.00;0.00;;;;;;;;5087838;28;11404;-83
2023/01/09 00:51:36;;;;;;;;;0.25;0.25;;;;;;;;5082492;28;11420;-82
2023/01/09 00:54:05;;;;;;;;;1.50;0.00;;;;;;;;5085867;28;11558;-82
2023/01/09 00:56:35;;;;;;;;;0.50;0.50;;;;;;;;5062693;28;11404;-83
2023/01/09 00:59:03;;;;;;;;;2.00;0.00;;;;;;;;5082159;28;11474;-83
2023/01/09 01:01:30;;;;;;;;;1.00;1.00;;;;;;;;5065325;28;11425;-82
2023/01/09 01:03:58;;;;;;;;;0.00;0.00;;;;;;;;5084953;28;11503;-82
2023/01/09 01:09:28;;;;;;;;;0.00;0.00;;;;;;;;5086396;28;12150;-82
2023/01/09 01:11:55;;;;;;;;;0.75;0.00;;;;;;;;5090676;28;11394;-82
2023/01/09 01:14:23;;;;;;;;;0.00;0.00;;;;;;;;5085426;28;11414;-83
2023/01/09 01:16:50;;;;;;;;;2.00;1.00;;;;;;;;5084565;28;11416;-83
2023/01/09 01:19:17;;;;;;;;;0.75;0.00;;;;;;;;5065593;28;11403;-83
2023/01/09 01:21:45;;;;;;;;;0.75;0.75;;;;;;;;5083065;28;11173;-83
2023/01/09 01:24:12;;;;;;;;;0.00;0.00;;;;;;;;5086031;28;11434;-83
2023/01/09 01:26:42;;;;;;;;;0.50;0.50;;;;;;;;5084577;28;12101;-83
2023/01/09 01:29:09;;;;;;;;;0.00;0.00;;;;;;;;5067846;28;11408;-83
2023/01/09 01:31:37;;;;;;;;;1.00;1.00;;;;;;;;5085598;28;11192;-83
2023/01/09 01:34:04;;;;;;;;;0.00;0.00;;;;;;;;5084190;28;11426;-83
2023/01/09 01:36:32;;;;;;;;;0.00;0.00;;;;;;;;5083678;28;11433;-83
2023/01/09 01:38:59;;;;;;;;;0.00;0.00;;;;;;;;5080462;28;11467;-83
2023/01/09 01:41:29;;;;;;;;;1.50;0.00;;;;;;;;5084159;28;11461;-83
2023/01/09 01:44:00;;;;;;;;;0.00;0.00;;;;;;;;5081333;28;11153;-83
2023/01/09 01:46:27;;;;;;;;;1.00;1.00;;;;;;;;5083248;28;11572;-83
2023/01/09 01:49:02;;;;;;;;;2.50;1.00;;;;;;;;5080775;28;11245;-84
2023/01/09 01:51:32;;;;;;;;;2.25;1.00;;;;;;;;5082742;28;11521;-83
2023/01/09 01:54:03;;;;;;;;;5.50;0.00;;;;;;;;5066608;28;11214;-83
2023/01/09 01:56:35;;;;;;;;;0.00;0.00;;;;;;;;5080463;28;11220;-83
2023/01/09 01:59:09;;;;;;;;;0.00;0.00;;;;;;;;5086028;28;11266;-83
2023/01/09 02:01:39;;;;;;;;;0.00;0.00;;;;;;;;5063821;27;11866;-83
2023/01/09 02:04:08;;;;;;;;;6.75;1.00;;;;;;;;5066785;28;11104;-83
2023/01/09 02:06:36;;;;;;;;;1.00;1.00;;;;;;;;5080952;28;11066;-83
2023/01/09 02:09:05;;;;;;;;;0.25;0.25;;;;;;;;5077788;28;11115;-84
2023/01/09 02:11:33;;;;;;;;;2.75;1.75;;;;;;;;5083143;28;11039;-83
2023/01/09 02:14:02;;;;;;;;;1.50;0.75;;;;;;;;5085126;28;11244;-83
2023/01/09 02:16:41;;;;;;;;;3.00;0.00;;;;;;;;5078594;28;11112;-83
2023/01/09 02:19:23;;;;;;;;;0.50;0.50;;;;;;;;5084612;28;11157;-84
2023/01/09 02:21:58;;;;;;;;;0.00;0.00;;;;;;;;5064426;28;11045;-83
2023/01/09 02:24:49;;;;;;;;;1.00;1.00;;;;;;;;5087409;28;11212;-83
2023/01/09 02:27:49;;;;;;;;;0.00;0.00;;;;;;;;5082518;28;11175;-83
2023/01/09 02:30:32;;;;;;;;;1.00;1.00;;;;;;;;5085626;28;11051;-84
2023/01/09 02:33:17;;;;;;;;;1.25;0.00;;;;;;;;5047194;28;11247;-84
2023/01/09 02:35:58;;;;;;;;;0.50;0.00;;;;;;;;5063933;28;11053;-83
2023/01/09 02:38:31;;;;;;;;;3.50;0.25;;;;;;;;5082991;28;11977;-84
2023/01/09 02:41:04;;;;;;;;;0.00;0.00;;;;;;;;5083519;28;11025;-83
2023/01/09 02:43:32;;;;;;;;;6.00;0.50;;;;;;;;5062995;28;11068;-83
2023/01/09 02:46:01;;;;;;;;;0.75;0.75;;;;;;;;5081544;28;11206;-83
2023/01/09 02:48:29;;;;;;;;;1.00;1.00;;;;;;;;5065192;28;11046;-83
2023/01/09 02:51:06;;;;;;;;;1.50;1.50;;;;;;;;5064017;28;11196;-83
2023/01/09 02:54:09;;;;;;;;;2.00;0.50;;;;;;;;5084153;28;11240;-82
2023/01/09 02:56:51;;;;;;;;;1.00;1.00;;;;;;;;5079808;27;11078;-83
2023/01/09 02:59:25;;;;;;;;;2.25;0.75;;;;;;;;5046966;28;11131;-83
2023/01/09 03:02:08;;;;;;;;;0.25;0.25;;;;;;;;5063303;28;10999;-83
2023/01/09 03:04:44;;;;;;;;;1.50;1.50;;;;;;;;5083421;28;10964;-83
2023/01/09 03:07:18;;;;;;;;;2.00;1.00;;;;;;;;5075805;28;11124;-83
2023/01/09 03:09:49;;;;;;;;;1.00;1.00;;;;;;;;5049942;28;11092;-83
2023/01/09 03:12:19;;;;;;;;;3.00;1.00;;;;;;;;5083996;28;11209;-83
2023/01/09 03:14:49;;;;;;;;;3.50;1.50;;;;;;;;5083742;28;11293;-83
2023/01/09 03:17:25;;;;;;;;;3.75;1.00;;;;;;;;5065955;28;11243;-83
2023/01/09 03:19:54;;;;;;;;;6.00;2.00;;;;;;;;5082170;28;11185;-83
2023/01/09 03:22:21;;;;;;;;;2.00;1.00;;;;;;;;5079681;28;11428;-83
2023/01/09 03:24:49;;;;;;;;;1.25;0.50;;;;;;;;5031371;28;11132;-83
2023/01/09 03:27:16;;;;;;;;;1.75;0.75;;;;;;;;5048786;28;11147;-83
2023/01/09 03:29:44;;;;;;;;;2.00;0.75;;;;;;;;5085124;28;10976;-84
2023/01/09 03:32:12;;;;;;;;;0.75;0.75;;;;;;;;5082420;28;10982;-83
2023/01/09 03:34:42;;;;;;;;;3.00;1.00;;;;;;;;5061221;28;11050;-83
2023/01/09 03:37:09;;;;;;;;;1.25;1.00;;;;;;;;5083205;28;11163;-83
2023/01/09 03:39:37;;;;;;;;;2.00;0.75;;;;;;;;5062671;28;12359;-84
2023/01/09 03:42:05;;;;;;;;;2.25;0.00;;;;;;;;5078729;28;11119;-84
2023/01/09 03:44:32;;;;;;;;;1.00;1.00;;;;;;;;5064778;28;11033;-83
2023/01/09 03:47:00;;;;;;;;;1.00;1.00;;;;;;;;5067963;28;11122;-84
2023/01/09 03:49:27;;;;;;;;;1.25;1.00;;;;;;;;5083905;28;10997;-83
2023/01/09 03:51:56;;;;;;;;;0.00;0.00;;;;;;;;5082270;28;11076;-83
2023/01/09 03:54:24;;;;;;;;;0.00;0.00;;;;;;;;5082397;28;10959;-83
2023/01/09 03:56:51;;;;;;;;;4.00;1.00;;;;;;;;5078219;28;10872;-82
2023/01/09 03:59:19;;;;;;;;;4.00;0.50;;;;;;;;5061958;28;11054;-83
2023/01/09 04:01:46;;;;;;;;;0.00;0.00;;;;;;;;5077711;28;10867;-83
2023/01/09 04:04:14;;;;;;;;;0.00;0.00;;;;;;;;5079875;28;10977;-83
2023/01/09 04:06:41;;;;;;;;;0.75;0.50;;;;;;;;5083874;28;11001;-83
2023/01/09 04:09:10;;;;;;;;;1.25;1.00;;;;;;;;5080707;28;11004;-83
2023/01/09 04:11:37;;;;;;;;;0.50;0.25;;;;;;;;5057503;28;10903;-83
2023/01/09 04:14:05;;;;;;;;;3.50;0.75;;;;;;;;5061552;28;11073;-83
2023/01/09 04:16:32;;;;;;;;;1.50;0.25;;;;;;;;5081463;28;12185;-83
2023/01/09 04:19:00;;;;;;;;;0.00;0.00;;;;;;;;5061970;28;11938;-83
2023/01/09 04:21:28;;;;;;;;;1.75;0.00;;;;;;;;5082697;28;10843;-83
2023/01/09 04:23:55;;;;;;;;;0.25;0.25;;;;;;;;5045869;28;11018;-83
2023/01/09 04:26:24;;;;;;;;;1.50;0.75;;;;;;;;5062516;28;10988;-83
2023/01/09 04:28:52;;;;;;;;;0.00;0.00;;;;;;;;5079278;28;11006;-83
2023/01/09 04:31:19;;;;;;;;;0.75;0.75;;;;;;;;5064115;28;10897;-83
2023/01/09 04:33:46;;;;;;;;;3.00;0.00;;;;;;;;5080439;28;11117;-84
2023/01/09 04:36:14;;;;;;;;;2.00;0.00;;;;;;;;5081274;28;10965;-84
2023/01/09 04:38:41;;;;;;;;;2.50;1.00;;;;;;;;5083295;28;10802;-83
2023/01/09 04:41:09;;;;;;;;;2.00;0.00;;;;;;;;5077055;28;10806;-83
2023/01/09 04:43:41;;;;;;;;;6.00;0.75;;;;;;;;5077953;28;10847;-83
2023/01/09 04:46:08;;;;;;;;;1.50;0.25;;;;;;;;5064729;28;10902;-84
2023/01/09 04:48:35;;;;;;;;;1.25;0.00;;;;;;;;5078332;28;10915;-83
2023/01/09 04:51:03;;;;;;;;;0.00;0.00;;;;;;;;5065673;28;10842;-84
2023/01/09 04:53:30;;;;;;;;;1.00;0.00;;;;;;;;5076245;28;10904;-84
2023/01/09 04:55:57;;;;;;;;;0.25;0.25;;;;;;;;5049839;28;10814;-83
2023/01/09 04:58:25;;;;;;;;;0.00;0.00;;;;;;;;5076563;28;10927;-84
2023/01/09 05:00:54;;;;;;;;;1.00;0.00;;;;;;;;5079806;28;10805;-83
2023/01/09 05:03:22;;;;;;;;;0.00;0.00;;;;;;;;5082119;28;11118;-84
2023/01/09 05:05:49;;;;;;;;;0.25;0.25;;;;;;;;5081049;28;11042;-84
2023/01/09 05:08:17;;;;;;;;;2.00;0.00;;;;;;;;5083512;28;11033;-84
2023/01/09 05:10:44;;;;;;;;;1.25;0.00;;;;;;;;5081554;28;10951;-84
2023/01/09 05:13:12;;;;;;;;;0.50;0.50;;;;;;;;5082033;28;11019;-84
2023/01/09 05:15:39;;;;;;;;;1.00;0.00;;;;;;;;5067570;28;11063;-84
2023/01/09 05:18:08;;;;;;;;;0.00;0.00;;;;;;;;5085553;28;11064;-83
2023/01/09 05:20:37;;;;;;;;;0.00;0.00;;;;;;;;5087058;28;10940;-83
2023/01/09 05:23:04;;;;;;;;;2.25;0.00;;;;;;;;5067497;28;10957;-84
2023/01/09 05:25:32;;;;;;;;;0.00;0.00;;;;;;;;5068527;28;11042;-84
2023/01/09 05:28:00;;;;;;;;;2.25;0.50;;;;;;;;5088600;28;11080;-84
2023/01/09 05:30:27;;;;;;;;;1.50;0.00;;;;;;;;5068545;28;11027;-84
2023/01/09 05:32:55;;;;;;;;;0.00;0.00;;;;;;;;5069392;28;10951;-83
2023/01/09 05:35:24;;;;;;;;;0.00;0.00;;;;;;;;5084495;28;10879;-83
2023/01/09 05:37:51;;;;;;;;;0.00;0.00;;;;;;;;5082051;28;10899;-83
2023/01/09 05:40:20;;;;;;;;;1.00;0.00;;;;;;;;5081294;28;10963;-84
2023/01/09 05:42:48;;;;;;;;;0.25;0.00;;;;;;;;5066807;28;11782;-84
2023/01/09 05:45:15;;;;;;;;;0.00;0.00;;;;;;;;5067902;28;11030;-83
2023/01/09 05:47:45;;;;;;;;;0.50;0.50;;;;;;;;5081775;28;11061;-84
2023/01/09 05:50:13;;;;;;;;;0.00;0.00;;;;;;;;5065373;28;11061;-84
2023/01/09 05:52:42;;;;;;;;;2.00;0.00;;;;;;;;5064555;28;10943;-84
2023/01/09 05:55:10;;;;;;;;;0.00;0.00;;;;;;;;5085631;28;10916;-84
2023/01/09 05:57:37;;;;;;;;;0.00;0.00;;;;;;;;5060868;28;10992;-84
2023/01/09 06:00:06;;;;;;;;;0.00;0.00;;;;;;;;5081218;28;11789;-83
2023/01/09 06:02:34;;;;;;;;;0.00;0.00;;;;;;;;5061287;28;10949;-84
2023/01/09 06:05:02;;;;;;;;;1.00;0.00;;;;;;;;5082123;28;10887;-84
2023/01/09 06:07:29;;;;;;;;;0.00;0.00;;;;;;;;5064982;28;10949;-83
2023/01/09 06:09:58;;;;;;;;;0.75;0.00;;;;;;;;5080677;28;10887;-84
2023/01/09 06:12:25;;;;;;;;;2.75;1.00;;;;;;;;5064919;28;11132;-83
2023/01/09 06:14:53;;;;;;;;;0.50;0.00;;;;;;;;5048418;28;10981;-83
2023/01/09 06:17:22;;;;;;;;;3.00;0.00;;;;;;;;5093387;28;10878;-83
2023/01/09 06:19:51;;;;;;;;;1.50;0.00;;;;;;;;5081006;28;10966;-83
2023/01/09 06:22:18;;;;;;;;;1.25;0.75;;;;;;;;5082243;28;11736;-84
2023/01/09 06:24:45;;;;;;;;;0.00;0.00;;;;;;;;5063077;28;10942;-81
2023/01/09 06:27:15;;;;;;;;;1.75;0.00;;;;;;;;5087230;28;10913;-84
2023/01/09 06:29:42;;;;;;;;;0.00;0.00;;;;;;;;5065771;28;10906;-82
2023/01/09 06:32:09;;;;;;;;;0.75;0.00;;;;;;;;5087450;28;10930;-81
2023/01/09 06:34:37;;;;;;;;;0.00;0.00;;;;;;;;5078167;28;10891;-83
2023/01/09 06:37:04;;;;;;;;;0.00;0.00;;;;;;;;5080742;28;11097;-82
2023/01/09 06:39:32;;;;;;;;;0.00;0.00;;;;;;;;5063068;28;10924;-81
2023/01/09 06:41:59;;;;;;;;;0.00;0.00;;;;;;;;5064433;28;10978;-77
2023/01/09 06:44:28;;;;;;;;;0.00;0.00;;;;;;;;5077491;28;10881;-76
2023/01/09 06:46:55;;;;;;;;;2.00;0.75;;;;;;;;5067037;28;10867;-76
2023/01/09 06:49:23;;;;;;;;;1.00;0.00;;;;;;;;5078014;28;10979;-76
2023/01/09 06:51:51;;;;;;;;;1.50;0.00;;;;;;;;5082183;28;11010;-77
2023/01/09 06:54:19;;;;;;;;;1.50;0.00;;;;;;;;5077498;28;11024;-77
2023/01/09 06:56:47;;;;;;;;;0.00;0.00;;;;;;;;5079685;28;10959;-77
2023/01/09 06:59:15;;;;;;;;;0.00;0.00;;;;;;;;5059326;28;10979;-76
2023/01/09 07:01:44;;;;;;;;;1.00;0.00;;;;;;;;5049132;28;10998;-77
2023/01/09 07:04:11;;;;;;;;;0.00;0.00;;;;;;;;5066861;28;10977;-77
2023/01/09 07:06:39;;;;;;;;;0.00;0.00;;;;;;;;5068637;28;11131;-76
2023/01/09 07:09:06;;;;;;;;;1.00;0.00;;;;;;;;5064035;28;11809;-77
2023/01/09 07:11:34;;;;;;;;;0.00;0.00;;;;;;;;5045994;28;11140;-77
2023/01/09 07:14:01;;;;;;;;;0.00;0.00;;;;;;;;5066650;28;11313;-77
2023/01/09 07:16:28;;;;;;;;;1.50;0.00;;;;;;;;5067615;28;10960;-77
2023/01/09 07:18:57;;;;;;;;;0.00;0.00;;;;;;;;5067976;28;11131;-76
2023/01/09 07:21:25;;;;;;;;;1.00;0.00;;;;;;;;5072645;28;11092;-77
2023/01/09 07:23:52;;;;;;;;;0.00;0.00;;;;;;;;5065351;28;11143;-77
2023/01/09 07:26:20;;;;;;;;;0.00;0.00;;;;;;;;5067565;28;11737;-76
2023/01/09 07:28:47;;;;;;;;;0.00;0.00;;;;;;;;5068379;28;11089;-77
2023/01/09 07:31:14;;;;;;;;;0.00;0.00;;;;;;;;5047995;28;11076;-77
2023/01/09 07:33:42;;;;;;;;;1.00;0.00;;;;;;;;5049033;28;11166;-77
2023/01/09 07:36:11;;;;;;;;;1.00;0.00;;;;;;;;5068305;28;11000;-75
2023/01/09 07:38:38;;;;;;;;;1.00;0.00;;;;;;;;5068853;28;11097;-74
2023/01/09 07:41:06;;;;;;;;;0.00;0.00;;;;;;;;5063802;28;11950;-76
2023/01/09 07:43:33;;;;;;;;;0.00;0.00;;;;;;;;5050210;28;11067;-76
2023/01/09 07:46:00;;;;;;;;;0.00;0.00;;;;;;;;5066165;28;10991;-76
2023/01/09 07:48:28;;;;;;;;;0.00;0.00;;;;;;;;5047791;28;11134;-76
2023/01/09 07:50:55;;;;;;;;;0.00;0.00;;;;;;;;5063370;28;11101;-75
2023/01/09 07:53:24;;;;;;;;;0.00;0.00;;;;;;;;5047784;28;11258;-77
2023/01/09 07:55:51;;;;;;;;;1.25;0.00;;;;;;;;5065182;28;11034;-76
2023/01/09 07:58:19;;;;;;;;;1.00;0.00;;;;;;;;5069684;28;11050;-76
2023/01/09 08:00:46;;;;;;;;;2.00;0.00;;;;;;;;5078646;28;11032;-77
2023/01/09 08:03:14;;;;;;;;;0.00;0.00;;;;;;;;5042743;28;11146;-75
2023/01/09 08:05:41;;;;;;;;;0.00;0.00;;;;;;;;5077593;28;11030;-77
2023/01/09 08:08:08;;;;;;;;;0.00;0.00;;;;;;;;5080486;28;11042;-77
2023/01/09 08:10:37;;;;;;;;;1.50;0.00;;;;;;;;5080177;28;11099;-77
2023/01/09 08:13:05;;;;;;;;;0.00;0.00;;;;;;;;5072231;28;11085;-77
2023/01/09 08:15:32;;;;;;;;;0.25;0.00;;;;;;;;5060448;28;11130;-75
2023/01/09 08:18:00;;;;;;;;;0.00;0.00;;;;;;;;5052149;28;11167;-76
2023/01/09 08:20:27;;;;;;;;;1.00;0.00;;;;;;;;5034544;28;11092;-76
2023/01/09 08:22:54;;;;;;;;;0.00;0.00;;;;;;;;5069066;28;11145;-75
2023/01/09 08:25:22;;;;;;;;;0.50;0.00;;;;;;;;5079090;28;10954;-78
2023/01/09 08:27:51;;;;;;;;;1.00;0.00;;;;;;;;5074468;28;11154;-74
2023/01/09 08:30:18;;;;;;;;;0.00;0.00;;;;;;;;5075164;28;11101;-75
2023/01/09 08:32:50;;;;;;;;;0.00;0.00;;;;;;;;5076811;28;12014;-75
2023/01/09 08:35:17;;;;;;;;;0.00;0.00;;;;;;;;5080504;28;11163;-76
2023/01/09 08:37:45;;;;;;;;;0.00;0.00;;;;;;;;5079892;28;11101;-75
2023/01/09 08:40:13;;;;;;;;;0.00;0.00;;;;;;;;5080811;28;11110;-75
2023/01/09 08:48:12;;;;;;;;;0.25;0.25;;;;;;;;5076850;28;10956;-75
2023/01/09 08:50:39;;;;;;;;;0.00;0.00;;;;;;;;5063427;28;11143;-74
2023/01/09 08:53:07;;;;;;;;;0.00;0.00;;;;;;;;5058014;28;11071;-74
2023/01/09 08:55:34;;;;;;;;;0.00;0.00;;;;;;;;5058841;28;11405;-74
2023/01/09 08:58:01;;;;;;;;;0.00;0.00;;;;;;;;5051788;28;11139;-74
2023/01/09 09:00:31;;;;;;;;;1.00;0.00;;;;;;;;5057989;28;11888;-74
2023/01/09 09:03:00;;;;;;;;;0.00;0.00;;;;;;;;5079227;28;11006;-75
2023/01/09 09:05:29;;;;;;;;;0.00;0.00;;;;;;;;5079305;28;10879;-74
2023/01/09 09:07:57;;;;;;;;;0.00;0.00;;;;;;;;5063624;28;11032;-75
2023/01/09 09:10:26;;;;;;;;;0.00;0.00;;;;;;;;5081210;28;11033;-75
2023/01/09 09:12:55;;;;;;;;;0.00;0.00;;;;;;;;5062371;28;11088;-73
2023/01/09 09:15:24;;;;;;;;;0.00;0.00;;;;;;;;5083599;28;10942;-74
2023/01/09 09:17:54;;;;;;;;;0.00;0.00;;;;;;;;5080655;28;10935;-74
2023/01/09 09:20:22;;;;;;;;;1.00;0.00;;;;;;;;5081220;28;11074;-74
2023/01/09 09:22:49;;;;;;;;;0.00;0.00;;;;;;;;5079332;28;11400;-74
2023/01/09 09:25:17;;;;;;;;;0.00;0.00;;;;;;;;5082397;28;12130;-74
2023/01/09 09:27:44;;;;;;;;;0.00;0.00;;;;;;;;5081849;28;11206;-74
2023/01/09 09:30:13;;;;;;;;;0.25;0.00;;;;;;;;5083053;28;11041;-73
2023/01/09 09:32:41;;;;;;;;;0.00;0.00;;;;;;;;5085341;28;12341;-74
2023/01/09 09:35:11;;;;;;;;;0.00;0.00;;;;;;;;4994861;28;11993;-73
2023/01/09 09:37:39;;;;;;;;;0.00;0.00;;;;;;;;4993206;28;11860;-74
2023/01/09 09:40:10;;;;;;;;;1.00;0.00;;;;;;;;5002460;28;11459;-73
2023/01/09 09:45:49;;;;;;;;;0.00;0.00;;;;;;;;5063994;28;11400;-74
2023/01/09 09:48:28;;;;;;;;;0.25;0.00;;;;;;;;5048121;28;11412;-74
2023/01/09 09:51:19;;;;;;;;;0.00;0.00;;;;;;;;4988298;28;11416;-74
2023/01/09 09:53:52;;;;;;;;;0.00;0.00;;;;;;;;4991865;28;11398;-74
2023/01/09 09:56:22;;;;;;;;;0.00;0.00;;;;;;;;5032786;28;11473;-74
2023/01/09 09:58:53;;;;;;;;;0.00;0.00;;;;;;;;5067239;28;12212;-73
2023/01/09 10:01:24;;;;;;;;;0.00;0.00;;;;;;;;5079879;28;11465;-74
2023/01/09 10:03:53;;;;;;;;;0.00;0.00;;;;;;;;5081751;28;11480;-73
2023/01/09 10:06:28;;;;;;;;;0.00;0.00;;;;;;;;5062551;28;11160;-74
2023/01/09 10:09:02;;;;;;;;;0.00;0.00;;;;;;;;5074966;28;11451;-74
2023/01/09 10:11:34;;;;;;;;;0.00;0.00;;;;;;;;5075860;28;11455;-73
2023/01/09 10:14:04;;;;;;;;;0.00;0.00;;;;;;;;5045356;28;11408;-74
2023/01/09 10:16:41;;;;;;;;;0.00;0.00;;;;;;;;5071257;28;11319;-73
2023/01/09 10:19:21;;;;;;;;;0.00;0.00;;;;;;;;5076475;28;11314;-73
2023/01/09 10:21:57;;;;;;;;;0.00;0.00;;;;;;;;5078667;28;11200;-72
2023/01/09 10:24:48;;;;;;;;;0.00;0.00;;;;;;;;5070403;28;11012;-71
2023/01/09 10:27:26;;;;;;;;;0.00;0.00;;;;;;;;5070350;28;11144;-73
2023/01/09 10:30:00;;;;;;;;;1.00;0.00;;;;;;;;5077868;28;11264;-74
2023/01/09 10:32:42;;;;;;;;;1.00;0.00;;;;;;;;5077224;28;12259;-73
2023/01/09 10:35:52;;;;;;;;;0.00;0.00;;;;;;;;5079148;28;11409;-73
2023/01/09 10:38:24;;;;;;;;;1.00;0.00;;;;;;;;4980916;28;11269;-72
2023/01/09 10:40:56;;;;;;;;;1.00;0.00;;;;;;;;5061544;28;11411;-72
2023/01/09 10:43:29;;;;;;;;;0.00;0.00;;;;;;;;5045322;28;11392;-73
2023/01/09 10:46:00;;;;;;;;;0.00;0.00;;;;;;;;5061283;28;11387;-74
2023/01/09 10:48:32;;;;;;;;;0.00;0.00;;;;;;;;5053851;28;11458;-72
2023/01/09 10:51:00;;;;;;;;;0.00;0.00;;;;;;;;5060576;28;11452;-73
2023/01/09 10:53:33;;;;;;;;;0.00;0.00;;;;;;;;5074372;28;11160;-75
2023/01/09 10:56:03;;;;;;;;;0.00;0.00;;;;;;;;5069880;28;11107;-73
2023/01/09 10:58:31;;;;;;;;;0.00;0.00;;;;;;;;5039602;28;11117;-73
2023/01/09 11:01:00;;;;;;;;;0.00;0.00;;;;;;;;5059978;28;11191;-75
2023/01/09 11:03:29;;;;;;;;;0.00;0.00;;;;;;;;5055752;28;11283;-72
2023/01/09 11:05:58;;;;;;;;;0.00;0.00;;;;;;;;5055623;28;11027;-75
2023/01/09 11:08:30;;;;;;;;;0.00;0.00;;;;;;;;5059401;28;11114;-76
2023/01/09 11:11:00;;;;;;;;;0.25;0.00;;;;;;;;5058751;28;11180;-75
2023/01/09 11:13:30;;;;;;;;;1.00;0.00;;;;;;;;5061369;28;12086;-74
2023/01/09 11:16:06;;;;;;;;;0.00;0.00;;;;;;;;5041041;28;11415;-76
2023/01/09 11:18:34;;;;;;;;;0.00;0.00;;;;;;;;5061075;28;11296;-76
2023/01/09 11:21:49;;;;;;;;;0.00;0.00;;;;;;;;5061921;28;11079;-79
2023/01/09 11:24:28;;;;;;;;;0.00;0.00;;;;;;;;4979187;28;11420;-77
2023/01/09 11:27:32;;;;;;;;;0.00;0.00;;;;;;;;5038614;28;11438;-77
2023/01/09 11:30:26;;;;;;;;;0.00;0.00;;;;;;;;5039410;28;11461;-79
2023/01/09 11:32:55;;;;;;;;;0.00;0.00;;;;;;;;5045618;28;11214;-76
2023/01/09 11:35:29;;;;;;;;;0.00;0.00;;;;;;;;5060109;28;11417;-77
2023/01/09 11:38:06;;;;;;;;;0.00;0.00;;;;;;;;5058948;28;11495;-76
2023/01/09 11:40:44;;;;;;;;;0.00;0.00;;;;;;;;5056541;28;11354;-74
2023/01/09 11:43:18;;;;;;;;;1.00;0.00;;;;;;;;5058775;28;11136;-74
2023/01/09 11:45:50;;;;;;;;;0.00;0.00;;;;;;;;5060211;28;11180;-73
2023/01/09 11:48:26;;;;;;;;;1.00;0.00;;;;;;;;5059714;28;11183;-76
2023/01/09 11:50:56;;;;;;;;;0.00;0.00;;;;;;;;5061552;28;11119;-75
2023/01/09 11:53:23;;;;;;;;;0.00;0.00;;;;;;;;5060091;28;11131;-73
2023/01/09 11:55:59;;;;;;;;;0.00;0.00;;;;;;;;5060370;28;10941;-73
2023/01/09 11:58:33;;;;;;;;;0.00;0.00;;;;;;;;5073138;28;11225;-74
2023/01/09 12:01:09;;;;;;;;;0.50;0.00;;;;;;;;5076200;28;11751;-74
2023/01/09 12:03:52;;;;;;;;;0.00;0.00;;;;;;;;5077696;28;11174;-74
2023/01/09 12:06:28;;;;;;;;;1.00;0.00;;;;;;;;5079410;28;10936;-73
2023/01/09 12:08:57;;;;;;;;;0.00;0.00;;;;;;;;5060432;28;11125;-74
2023/01/09 12:11:33;;;;;;;;;0.00;0.00;;;;;;;;5080934;28;10947;-74
2023/01/09 12:14:14;;;;;;;;;0.00;0.00;;;;;;;;5077871;28;10906;-72
2023/01/09 12:16:59;;;;;;;;;0.00;0.00;;;;;;;;5078998;28;10867;-73
2023/01/09 12:19:50;;;;;;;;;0.00;0.00;;;;;;;;5095224;28;11841;-73
2023/01/09 12:22:25;;;;;;;;;0.00;0.00;;;;;;;;5080848;28;10811;-72
2023/01/09 12:25:18;;;;;;;;;0.00;0.00;;;;;;;;5078844;28;10713;-74
2023/01/09 12:27:57;;;;;;;;;1.00;0.00;;;;;;;;5042647;28;10755;-76
2023/01/09 12:30:38;;;;;;;;;0.00;0.00;;;;;;;;5076349;28;11301;-74
2023/01/09 12:33:24;;;;;;;;;0.00;0.00;;;;;;;;5080160;28;11302;-73
2023/01/09 12:36:11;;;;;;;;;0.00;0.00;;;;;;;;5080321;28;10327;-73
2023/01/09 12:38:43;;;;;;;;;0.75;0.00;;;;;;;;5078080;28;10212;-75
2023/01/09 12:41:41;;;;;;;;;1.50;0.00;;;;;;;;5082289;28;11002;-73
2023/01/09 12:44:41;;;;;;;;;2.00;0.00;;;;;;;;5077172;28;10218;-73
2023/01/09 12:47:37;;;;;;;;;0.00;0.00;;;;;;;;5070618;28;10212;-72
2023/01/09 12:50:20;;;;;;;;;0.00;0.00;;;;;;;;5073688;28;10256;-73
2023/01/09 12:52:53;;;;;;;;;0.00;0.00;;;;;;;;5077608;28;11049;-72
2023/01/09 12:55:24;;;;;;;;;0.00;0.00;;;;;;;;5076802;28;10265;-72
2023/01/09 12:57:53;;;;;;;;;1.00;0.00;;;;;;;;5074257;28;10285;-73
2023/01/09 13:00:24;;;;;;;;;1.50;0.00;;;;;;;;5079747;28;10190;-74
2023/01/09 13:02:56;;;;;;;;;0.00;0.00;;;;;;;;5075327;28;11256;-73
2023/01/09 13:05:29;;;;;;;;;0.00;0.00;;;;;;;;5062307;28;10497;-72
2023/01/09 13:08:02;;;;;;;;;1.00;1.00;;;;;;;;5072324;28;10556;-72
2023/01/09 13:10:32;;;;;;;;;1.00;0.00;;;;;;;;5077653;28;10591;-72
2023/01/09 13:13:05;;;;;;;;;1.00;0.00;;;;;;;;5066777;28;10507;-72
2023/01/09 13:15:37;;;;;;;;;0.00;0.00;;;;;;;;5070249;28;10653;-72
2023/01/09 13:18:07;;;;;;;;;0.00;0.00;;;;;;;;5079459;28;10660;-73
2023/01/09 13:20:42;;;;;;;;;0.00;0.00;;;;;;;;5081062;28;10657;-71
2023/01/09 13:23:17;;;;;;;;;0.00;0.00;;;;;;;;5061154;28;10767;-73
2023/01/09 13:25:47;;;;;;;;;0.00;0.00;;;;;;;;5059486;28;10839;-72
2023/01/09 13:28:18;;;;;;;;;0.75;0.75;;;;;;;;5079877;28;10997;-72
2023/01/09 13:30:57;;;;;;;;;1.25;0.00;;;;;;;;5044737;28;10888;-75
2023/01/09 13:33:27;;;;;;;;;0.00;0.00;;;;;;;;5081363;28;11145;-72
2023/01/09 13:35:57;;;;;;;;;0.75;0.75;;;;;;;;5061511;28;11223;-72
2023/01/09 13:38:26;;;;;;;;;0.00;0.00;;;;;;;;5076441;28;10896;-72
2023/01/09 13:44:11;;;;;;;;;1.00;0.00;;;;;;;;5040020;28;11378;-72
2023/01/09 13:46:42;;;;;;;;;0.00;0.00;;;;;;;;5075154;28;11085;-73
2023/01/09 13:49:31;;;;;;;;;0.00;0.00;;;;;;;;5063160;28;11068;-73
2023/01/09 13:52:05;;;;;;;;;0.00;0.00;;;;;;;;5058378;28;11724;-71
2023/01/09 13:55:02;;;;;;;;;0.00;0.00;;;;;;;;5079383;28;11017;-72
2023/01/09 13:57:31;;;;;;;;;0.00;0.00;;;;;;;;5078485;28;11406;-72
2023/01/09 14:00:36;;;;;;;;;0.00;0.00;;;;;;;;5080965;28;11456;-72
2023/01/09 14:03:18;;;;;;;;;2.00;0.00;;;;;;;;5081855;28;11238;-72
2023/01/09 14:06:12;;;;;;;;;0.00;0.00;;;;;;;;5077719;28;11394;-72
2023/01/09 14:08:42;;;;;;;;;0.00;0.00;;;;;;;;5054701;28;11416;-72
2023/01/09 14:11:09;;;;;;;;;0.75;0.75;;;;;;;;5079653;28;11403;-72
2023/01/09 14:13:41;;;;;;;;;0.00;0.00;;;;;;;;5060319;28;11407;-71
2023/01/09 14:16:16;;;;;;;;;1.00;1.00;;;;;;;;5080682;28;11541;-72
2023/01/09 14:18:50;;;;;;;;;0.00;0.00;;;;;;;;5072847;28;11406;-72
2023/01/09 14:21:18;;;;;;;;;0.00;0.00;;;;;;;;5079937;28;11401;-72
2023/01/09 14:23:55;;;;;;;;;0.00;0.00;;;;;;;;5078979;28;11425;-71
2023/01/09 14:26:25;;;;;;;;;0.00;0.00;;;;;;;;5053512;28;11414;-72
2023/01/09 14:28:52;;;;;;;;;0.00;0.00;;;;;;;;5075433;28;11414;-71
2023/01/09 14:31:30;;;;;;;;;0.00;0.00;;;;;;;;5073186;28;11480;-72
2023/01/09 14:34:27;;;;;;;;;0.00;0.00;;;;;;;;5075461;28;11402;-73
2023/01/09 14:36:57;;;;;;;;;0.00;0.00;;;;;;;;5075629;28;11387;-73
2023/01/09 14:39:27;;;;;;;;;0.00;0.00;;;;;;;;5063167;28;11405;-73
2023/01/09 14:42:04;;;;;;;;;81.00;63.25;;;;;;;;5078230;28;11443;-74
2023/01/09 14:44:34;;;;;;;;;0.00;0.00;;;;;;;;5046083;28;11608;-75
2023/01/09 14:47:07;;;;;;;;;1.00;0.00;;;;;;;;5060175;28;11406;-76
2023/01/09 14:49:37;;;;;;;;;1.50;0.75;;;;;;;;5077042;28;12230;-76
2023/01/09 14:52:10;;;;;;;;;1.00;1.00;;;;;;;;5081229;28;11427;-76
2023/01/09 14:54:43;;;;;;;;;1.00;1.00;;;;;;;;5063392;28;12497;-72
2023/01/09 14:57:27;;;;;;;;;0.50;0.50;;;;;;;;5077571;28;11462;-72
2023/01/09 15:00:02;;;;;;;;;0.00;0.00;;;;;;;;5042042;28;11433;-73
2023/01/09 15:02:31;;;;;;;;;0.00;0.00;;;;;;;;5024427;28;11410;-71
2023/01/09 15:05:04;;;;;;;;;0.00;0.00;;;;;;;;5042441;28;11545;-71
2023/01/09 15:07:39;;;;;;;;;0.00;0.00;;;;;;;;5061758;28;11107;-70
2023/01/09 15:10:15;;;;;;;;;0.00;0.00;;;;;;;;5056958;28;11408;-71
2023/01/09 15:12:45;;;;;;;;;0.00;0.00;;;;;;;;5065802;28;11903;-71
2023/01/09 15:15:15;;;;;;;;;0.00;0.00;;;;;;;;5057666;28;11533;-70
2023/01/09 15:17:45;;;;;;;;;0.50;0.50;;;;;;;;5065780;28;11421;-73
2023/01/09 15:20:19;;;;;;;;;1.00;1.00;;;;;;;;5060380;28;11411;-70
2023/01/09 15:22:49;;;;;;;;;0.25;0.25;;;;;;;;5059959;28;11460;-70
2023/01/09 15:25:26;;;;;;;;;1.00;1.00;;;;;;;;5061357;28;11183;-71